Terminal Aerodrome Forecast
Issued by NWS

Home | Current Version | Previous Version | Text Only | Print | Product List | Glossary On
Versions: 1 2 3 4 5 6 7 8 9 10 11 12 13 14 15 16 17 18 19 20 21 22 23 24 25 26 27 28 29 30 31
000
FTUS44 KMAF 231700
TAFHOB
TAF
KHOB 231723Z 2318/2418 18012KT P6SM FEW150
     FM231900 20015G23KT P6SM FEW150
     FM240100 17014KT P6SM FEW150
     FM240500 18009KT 5SM BR BKN015
     FM241400 24011KT P6SM SKC=

USA.gov is the U.S. government's official web portal to all federal, state and local government web resources and services.